Ops Hamburg — A8VS9 — position and weather

sailwx.info

Track history (hours):
 
Tides and Currents Weather Stations Pressure Air Temp Water Temp Dewpoint Dewpoint Depression Visibility Wind Speed Wind Dir Waves Ship Positions

Ops Hamburg

Last reported at 2015-Aug-28 15:31 UTC. Time now 2015-Aug-29 06:08 UTC.
Position N 37°00' E 004°10'.

Length 148 m; draft 7.4 m.

Type: Ship (hazmat cat A). MMSI: 636092040.

Date/timePositionNaut miles runAvg speedWind from/ knotsBaromVisibWave heightAir tempDewpointWater temp
2015-Aug-28 15:31N 37°00' E 004°10'4911.7
2015-Aug-28 11:21N 36°51' E 003°10'7 0.3
2015-Aug-27 13:33N 36°46' E 003°04'0 0.0
2015-Aug-27 12:21N 36°46' E 003°04'54 1.6
2015-Aug-26 02:33N 37°35' E 003°31'32011.0
2015-Aug-24 21:31N 42°47' E 005°02'1212.0
2015-Aug-24 20:33N 42°59' E 005°04'1211.8
2015-Aug-24 19:33N 43°10' E 005°08'1010.4
2015-Aug-24 18:33N 43°19' E 005°15'4 3.9
2015-Aug-24 17:31N 43°21' E 005°20'0 0.0
2015-Aug-24 16:31N 43°21' E 005°20'0 0.0
2015-Aug-24 15:25N 43°21' E 005°20'0 0.0
2015-Aug-24 14:25N 43°21' E 005°20'0 0.0
2015-Aug-24 13:22N 43°21' E 005°20'0 0.0
2015-Aug-24 12:19N 43°21' E 005°20'0 0.0
2015-Aug-24 11:16N 43°21' E 005°20'0 0.0
2015-Aug-24 10:22N 43°21' E 005°20'0 0.0
2015-Aug-24 09:28N 43°21' E 005°20'0 0.0
2015-Aug-24 08:31N 43°21' E 005°20'0 0.0
2015-Aug-24 07:31N 43°21' E 005°20'0 0.0
2015-Aug-24 06:31N 43°21' E 005°20'0 0.0
2015-Aug-24 05:19N 43°21' E 005°20'0 0.0
2015-Aug-24 04:28N 43°21' E 005°20'1 0.9
2015-Aug-24 03:33N 43°21' E 005°19'10 9.5
2015-Aug-24 02:33N 43°14' E 005°10'1210.9
2015-Aug-24 01:27N 43°02' E 005°05'16210.8
2015-Aug-23 10:26N 41°16' E 002°21'10 2.2
2015-Aug-23 06:04N 41°21' E 002°10'0 0.0
2015-Aug-22 22:22N 41°21' E 002°10'0 0.0
2015-Aug-22 18:10N 41°21' E 002°10'4 6.9
2015-Aug-22 17:33N 41°17' E 002°11'2 2.4
2015-Aug-22 16:33N 41°15' E 002°13'6 6.1
2015-Aug-22 15:33N 41°10' E 002°18'1212.5
2015-Aug-22 14:33N 41°00' E 002°27'1312.9
2015-Aug-22 13:33N 40°50' E 002°38'1313.1
2015-Aug-22 12:33N 40°39' E 002°48'1313.2
2015-Aug-22 11:33N 40°29' E 002°58'1313.2
2015-Aug-22 10:33N 40°18' E 003°09'2612.9
2015-Aug-22 08:30N 39°58' E 003°31'1212.9
2015-Aug-22 07:33N 39°50' E 003°43'1413.6
2015-Aug-22 06:31N 39°40' E 003°56'2713.6
2015-Aug-22 04:33N 39°22' E 004°22'1713.3
2015-Aug-22 03:15N 39°11' E 004°39'4213.4
2015-Aug-22 00:07N 38°44' E 005°20'  
Track history (hours):
 
Tides and Currents Weather Stations Pressure Air Temp Water Temp Dewpoint Dewpoint Depression Visibility Wind Speed Wind Dir Waves Ship Positions

Ops Hamburg

Last reported at 2015-Aug-28 15:31 UTC. Time now 2015-Aug-29 06:08 UTC.
Position N 37°00' E 004°10'.

Length 148 m; draft 7.4 m.

Type: Ship (hazmat cat A). MMSI: 636092040.

Date/timePositionNaut miles runAvg speedWind from/ knotsBaromVisibWave heightAir tempDewpointWater temp
2015-Aug-28 15:31N 37°00' E 004°10'4911.7
2015-Aug-28 11:21N 36°51' E 003°10'7 0.3
2015-Aug-27 13:33N 36°46' E 003°04'0 0.0
2015-Aug-27 12:21N 36°46' E 003°04'54 1.6
2015-Aug-26 02:33N 37°35' E 003°31'32011.0
2015-Aug-24 21:31N 42°47' E 005°02'1212.0
2015-Aug-24 20:33N 42°59' E 005°04'1211.8
2015-Aug-24 19:33N 43°10' E 005°08'1010.4
2015-Aug-24 18:33N 43°19' E 005°15'4 3.9
2015-Aug-24 17:31N 43°21' E 005°20'0 0.0
2015-Aug-24 16:31N 43°21' E 005°20'0 0.0
2015-Aug-24 15:25N 43°21' E 005°20'0 0.0
2015-Aug-24 14:25N 43°21' E 005°20'0 0.0
2015-Aug-24 13:22N 43°21' E 005°20'0 0.0
2015-Aug-24 12:19N 43°21' E 005°20'0 0.0
2015-Aug-24 11:16N 43°21' E 005°20'0 0.0
2015-Aug-24 10:22N 43°21' E 005°20'0 0.0
2015-Aug-24 09:28N 43°21' E 005°20'0 0.0
2015-Aug-24 08:31N 43°21' E 005°20'0 0.0
2015-Aug-24 07:31N 43°21' E 005°20'0 0.0
2015-Aug-24 06:31N 43°21' E 005°20'0 0.0
2015-Aug-24 05:19N 43°21' E 005°20'0 0.0
2015-Aug-24 04:28N 43°21' E 005°20'1 0.9
2015-Aug-24 03:33N 43°21' E 005°19'10 9.5
2015-Aug-24 02:33N 43°14' E 005°10'1210.9
2015-Aug-24 01:27N 43°02' E 005°05'16210.8
2015-Aug-23 10:26N 41°16' E 002°21'10 2.2
2015-Aug-23 06:04N 41°21' E 002°10'0 0.0
2015-Aug-22 22:22N 41°21' E 002°10'0 0.0
2015-Aug-22 18:10N 41°21' E 002°10'4 6.9
2015-Aug-22 17:33N 41°17' E 002°11'2 2.4
2015-Aug-22 16:33N 41°15' E 002°13'6 6.1
2015-Aug-22 15:33N 41°10' E 002°18'1212.5
2015-Aug-22 14:33N 41°00' E 002°27'1312.9
2015-Aug-22 13:33N 40°50' E 002°38'1313.1
2015-Aug-22 12:33N 40°39' E 002°48'1313.2
2015-Aug-22 11:33N 40°29' E 002°58'1313.2
2015-Aug-22 10:33N 40°18' E 003°09'2612.9
2015-Aug-22 08:30N 39°58' E 003°31'1212.9
2015-Aug-22 07:33N 39°50' E 003°43'1413.6
2015-Aug-22 06:31N 39°40' E 003°56'2713.6
2015-Aug-22 04:33N 39°22' E 004°22'1713.3
2015-Aug-22 03:15N 39°11' E 004°39'4213.4
2015-Aug-22 00:07N 38°44' E 005°20'  

Dump ship's entire track history